Latest Coastal Weather Observations for Smithton

IDV60701

Issued at 12:41 am EST Saturday 29 August 2015 (issued every 10 minutes, with the page automatically refreshed every 10 minutes)

About coastal observations | Map of coastal stations | Coastal observations for VIC | Marine services | Other Formats
Station Details ID: 091292 Name: SMITHTON AERODROME Lat: -40.83 Lon: 145.08 Height: 7.5 m
Data from the previous 72 hours. | See also: Recent months at Smithton
Date/Time
EST
Temp

°C
Wind Pressure Rain
since 9am
mm
Weather Cloud Vis
km
Sea
Height
m
Swell
Dir
 
Speed
knots
Gust
knots
hPa Trend Height
m
Period
s
Dir
29/12:30am 3.3 SW 9 11 1025.8 - 0.0 - - - - - - -
29/12:00am 2.3 WSW 8 10 1026.4 - 0.0 - - - - - - -
 
Date/Time
EST
Temp

°C
Wind Pressure Rain
since 9am
mm
Weather Cloud Vis
km
Sea
Height
m
Swell
Dir
 
Speed
knots
Gust
knots
hPa Trend Height
m
Period
s
Dir
28/11:30pm 1.7 WSW 8 9 1026.7 - 0.0 - - - - - - -
28/11:00pm 0.9 SW 7 8 1027.2 - 0.0 - - - - - - -
28/10:30pm 2.5 SSW 5 7 1027.5 - 0.0 - - - - - - -
28/10:00pm 3.7 SSW 7 11 1027.6 - 0.0 - - - - - - -
28/09:30pm 2.8 SSW 4 5 1028.0 - 0.0 - - - - - - -
28/09:00pm 2.4 SSW 7 8 1027.9 - 0.0 - - - - - - -
28/08:30pm 3.5 S 8 9 1027.9 - 0.0 - - - - - - -
28/08:00pm 4.8 SSW 10 12 1027.6 - 0.0 - - - - - - -
28/07:30pm 5.3 S 13 16 1027.1 - 0.0 - - - - - - -
28/07:00pm 6.1 SSW 14 19 1026.7 - 0.0 - - - - - - -
28/06:30pm 6.4 SSW 13 19 1026.1 - 0.0 - - - - - - -
28/06:00pm 7.0 SSW 11 16 1025.7 - 0.0 - - - - - - -
28/05:30pm 7.9 SSW 14 19 1025.6 - 0.0 - - - - - - -
28/05:00pm 8.8 S 18 25 1025.1 - 0.0 - - - - - - -
28/04:30pm 10.2 S 16 21 1024.9 - 0.0 - - - - - - -
28/04:00pm 11.1 S 14 18 1024.7 - 0.0 - - - - - - -
28/03:30pm 11.5 S 15 19 1024.5 - 0.0 - - - - - - -
28/03:00pm 11.9 SSW 15 18 1024.4 - 0.0 - - - - - - -
28/02:30pm 11.9 SSW 15 21 1024.4 - 0.0 - - - - - - -
28/02:00pm 12.0 S 13 19 1024.5 - 0.0 - - - - - - -
28/01:30pm 12.1 S 14 19 1024.7 - 0.0 - - - - - - -
28/01:00pm 11.7 SSW 14 18 1025.0 - 0.0 - - - - - - -
28/12:30pm 11.8 S 15 19 1025.4 - 0.0 - - - - - - -
28/12:00pm 11.3 S 16 21 1025.7 - 0.0 - - - - - - -
28/11:30am 10.8 S 14 18 1026.0 - 0.0 - - - - - - -
28/11:00am 10.4 S 14 19 1026.1 - 0.0 - - - - - - -
28/10:30am 9.8 S 13 18 1026.1 - 0.0 - - - - - - -
28/10:00am 8.7 S 14 18 1026.1 - 0.0 - - - - - - -
28/09:30am 8.2 SSE 14 20 1026.0 - 0.0 - - - - - - -
28/09:00am 7.7 S 13 18 1025.7 - 0.0 - - - - - - -
28/08:30am 7.1 SSW 11 16 1025.4 - 0.0 - - - - - - -
28/08:00am 5.8 SSW 4 6 1025.3 - 0.0 - - - - - - -
28/07:30am 3.8 SSW 5 6 1025.0 - 0.0 - - - - - - -
28/07:00am 3.1 SSW 6 7 1024.6 - 0.0 - - - - - - -
28/06:30am 4.0 SSW 6 7 1024.4 - 0.0 - - - - - - -
28/06:00am 4.4 S 6 7 1024.3 - 0.0 - - - - - - -
28/05:30am 3.6 SSW 6 8 1023.8 - 0.0 - - - - - - -
28/05:00am 3.4 SSW 6 7 1023.4 - 0.0 - - - - - - -
28/04:30am 4.3 SSW 7 8 1023.3 - 0.0 - - - - - - -
28/04:00am 4.8 SSW 9 10 1023.2 - 0.0 - - - - - - -
28/03:30am 5.1 SSW 8 11 1023.0 - 0.0 - - - - - - -
28/03:00am 6.1 SSW 11 13 1023.0 - 0.0 - - - - - - -
28/02:30am 6.0 SSW 10 13 1023.1 - 0.0 - - - - - - -
28/02:00am 6.1 SSW 10 12 1023.1 - 0.0 - - - - - - -
28/01:30am 6.3 SSW 9 11 1023.2 - 0.0 - - - - - - -
28/01:00am 6.3 SSW 9 12 1023.3 - 0.0 - - - - - - -
28/12:30am 6.6 SSW 9 11 1023.2 - 0.0 - - - - - - -
28/12:00am 6.9 SSW 10 13 1023.1 - 0.0 - - - - - - -
 
Date/Time
EST
Temp

°C
Wind Pressure Rain
since 9am
mm
Weather Cloud Vis
km
Sea
Height
m
Swell
Dir
 
Speed
knots
Gust
knots
hPa Trend Height
m
Period
s
Dir
27/11:30pm 7.3 SSW 12 15 1023.1 - 0.0 - - - - - - -
27/11:00pm 7.0 SSW 11 14 1023.2 - 0.0 - - - - - - -
27/10:30pm 7.5 SSW 11 15 1023.1 - 0.0 - - - - - - -
27/10:00pm 7.4 SSW 10 13 1023.1 - 0.0 - - - - - - -
27/09:30pm 7.9 SSW 14 19 1022.9 - 0.0 - - - - - - -
27/09:00pm 8.0 SSW 13 18 1022.8 - 0.0 - - - - - - -
27/08:30pm 7.7 SSW 13 17 1022.6 - 0.0 - - - - - - -
27/08:00pm 8.0 SSW 14 16 1022.6 - 0.0 - - - - - - -
27/07:30pm 8.3 SW 13 16 1022.6 - 0.0 - - - - - - -
27/07:00pm 8.8 SW 13 18 1022.4 - 0.0 - - - - - - -
27/06:30pm 9.0 SW 11 13 1022.2 - 0.0 - - - - - - -
27/06:00pm 9.9 SW 11 14 1021.7 - 0.0 - - - - - - -
27/05:30pm 10.9 SW 12 15 1021.3 - 0.0 - - - - - - -
27/05:00pm 12.6 SW 14 18 1021.1 - 0.0 - - - - - - -
27/04:30pm 13.8 S 13 18 1020.8 - 0.0 - - - - - - -
27/04:00pm 14.1 S 13 19 1020.6 - 0.0 - - - - - - -
27/03:30pm 14.4 SW 14 17 1020.5 - 0.0 - - - - - - -
27/03:00pm 15.0 SW 13 16 1020.4 - 0.0 - - - - - - -
27/02:30pm 15.1 SW 10 14 1020.4 - 0.0 - - - - - - -
27/02:00pm 15.1 SSW 10 14 1020.7 - 0.0 - - - - - - -
27/01:30pm 14.2 SSW 7 9 1021.0 - 0.0 - - - - - - -
27/01:00pm 13.6 SW 9 11 1021.6 - 0.0 - - - - - - -
27/12:30pm 13.4 SW 8 11 1021.8 - 0.0 - - - - - - -
27/12:00pm 13.4 S 7 9 1022.3 - 0.0 - - - - - - -
27/11:30am 13.2 SSW 7 9 1022.7 - 0.0 - - - - - - -
27/11:00am 13.0 ESE 4 6 1023.1 - 0.0 - - - - - - -
27/10:30am 12.4 SSE 4 6 1023.2 - 0.0 - - - - - - -
27/10:00am 11.6 S 5 7 1023.3 - 0.0 - - - - - - -
27/09:30am 10.8 S 5 6 1023.4 - 0.0 - - - - - - -
27/09:00am 10.1 S 5 6 1023.5 - 0.6 - - - - - - -
27/08:30am 9.5 SE 5 6 1023.4 - 0.6 - - - - - - -
27/08:00am 8.1 SE 5 5 1023.3 - 0.6 - - - - - - -
27/07:30am 7.4 SE 4 5 1022.9 - 0.6 - - - - - - -
27/07:00am 7.3 SE 4 5 1022.9 - 0.6 - - - - - - -
27/06:30am 7.8 SE 4 5 1022.6 - 0.6 - - - - - - -
27/06:00am 8.3 ESE 5 6 1022.4 - 0.6 - - - - - - -
27/05:30am 8.2 ESE 5 7 1022.4 - 0.6 - - - - - - -
27/05:00am 8.4 ESE 7 8 1022.4 - 0.6 - - - - - - -
27/04:30am 8.8 ESE 8 10 1022.5 - 0.6 - - - - - - -
27/04:00am 9.0 ESE 8 9 1022.6 - 0.6 - - - - - - -
27/03:30am 9.1 ESE 8 10 1022.9 - 0.6 - - - - - - -
27/03:00am 9.3 ESE 7 9 1023.3 - 0.4 - - - - - - -
27/02:30am 9.5 ESE 5 7 1023.7 - 0.4 - - - - - - -
27/02:00am 9.5 ESE 6 8 1024.1 - 0.4 - - - - - - -
27/01:30am 9.8 ESE 9 11 1024.5 - 0.4 - - - - - - -
27/01:00am 9.7 E 7 8 1024.8 - 0.0 - - - - - - -
27/12:30am 9.5 ESE 7 8 1025.0 - 0.0 - - - - - - -
27/12:00am 9.6 ESE 6 7 1025.3 - 0.0 - - - - - - -
 
Date/Time
EST
Temp

°C
Wind Pressure Rain
since 9am
mm
Weather Cloud Vis
km
Sea
Height
m
Swell
Dir
 
Speed
knots
Gust
knots
hPa Trend Height
m
Period
s
Dir
26/11:30pm 9.7 ESE 8 11 1025.5 - 0.0 - - - - - - -
26/11:00pm 10.0 E 9 13 1025.7 - 0.0 - - - - - - -
26/10:30pm 10.1 E 7 9 1026.0 - 0.0 - - - - - - -
26/10:00pm 9.9 E 6 8 1026.3 - 0.0 - - - - - - -
26/09:30pm 10.3 E 9 11 1026.3 - 0.0 - - - - - - -
26/09:00pm 9.9 ESE 7 9 1026.3 - 0.0 - - - - - - -
26/08:30pm 9.9 E 9 11 1026.3 - 0.0 - - - - - - -
26/08:00pm 9.4 E 7 9 1026.4 - 0.0 - - - - - - -
26/07:30pm 9.3 E 7 9 1026.5 - 0.0 - - - - - - -
26/07:00pm 9.5 E 6 8 1026.6 - 0.0 - - - - - - -
26/06:30pm 9.4 E 5 6 1026.6 - 0.0 - - - - - - -
26/06:00pm 9.7 E 7 10 1026.5 - 0.0 - - - - - - -
26/05:30pm 10.3 E 9 12 1026.5 - 0.0 - - - - - - -
26/05:00pm 10.8 E 11 15 1026.4 - 0.0 - - - - - - -
26/04:30pm 11.3 E 12 16 1026.5 - 0.0 - - - - - - -
26/04:00pm 12.1 E 15 21 1026.4 - 0.0 - - - - - - -
26/03:30pm 12.4 E 14 19 1026.6 - 0.0 - - - - - - -
26/03:00pm 12.3 E 15 22 1026.8 - 0.0 - - - - - - -
26/02:30pm 13.1 ENE 15 21 1027.2 - 0.0 - - - - - - -
26/02:00pm 13.6 E 14 19 1027.4 - 0.0 - - - - - - -
26/01:30pm 13.0 E 16 22 1027.7 - 0.0 - - - - - - -
26/01:00pm 13.6 ENE 15 21 1028.2 - 0.0 - - - - - - -
26/12:30pm 13.3 E 16 22 1028.7 - 0.0 - - - - - - -
26/12:00pm 13.6 ENE 13 17 1029.2 - 0.0 - - - - - - -
26/11:30am 13.1 E 15 18 1029.6 - 0.0 - - - - - - -
26/11:00am 12.6 E 13 17 1029.8 - 0.0 - - - - - - -
26/10:30am 12.3 E 13 17 1030.0 - 0.0 - - - - - - -
26/10:00am 11.2 E 11 15 1030.2 - 0.0 - - - - - - -
26/09:30am 9.8 E 10 13 1030.3 - 0.0 - - - - - - -
26/09:00am 8.2 ESE 5 9 1030.3 - 0.2 - - - - - - -
26/08:30am 5.1 SSW 3 4 1030.3 - 0.2 - - - - - - -
26/08:00am 2.5 SSW 4 5 1030.2 - 0.2 - - - - - - -
26/07:30am 1.1 SSW 5 6 1030.2 - 0.2 - - - - - - -
26/07:00am 0.8 SSW 4 5 1030.0 - 0.2 - - - - - - -
26/06:30am 0.7 SSW 5 6 1030.0 - 0.2 - - - - - - -
26/06:00am 0.7 SSW 4 5 1029.9 - 0.2 - - - - - - -
26/05:30am 1.5 SSW 5 5 1029.9 - 0.0 - - - - - - -
26/05:00am 1.1 SSW 4 6 1029.9 - 0.0 - - - - - - -
26/04:30am 0.9 SSW 5 6 1029.8 - 0.0 - - - - - - -
26/04:00am 1.5 SSW 4 4 1029.8 - 0.0 - - - - - - -
26/03:30am 1.3 SSW 5 5 1029.8 - 0.0 - - - - - - -
26/03:00am 1.5 S 5 6 1030.0 - 0.0 - - - - - - -
26/02:30am 1.8 S 6 7 1030.4 - 0.0 - - - - - - -
26/02:00am 1.4 SSE 4 5 1030.5 - 0.0 - - - - - - -
26/01:30am 1.5 SSE 4 5 1030.7 - 0.0 - - - - - - -
26/01:00am 1.2 SSE 3 4 1030.7 - 0.0 - - - - - - -

Other Formats:

Comma delimited format used in spreadsheet applications
http://www.bom.gov.au/fwo/IDV60701/IDV60701.94953.axf

JavaScript Object Notation format (JSON) in row-major order
http://www.bom.gov.au/fwo/IDV60701/IDV60701.94953.json